sensor_id;sensor_type;location;lat;lon;timestamp;pressure;altitude;pressure_sealevel;temperature;humidity
21900;BME280;11114;50.658;12.704;2023-05-24T00:02:14;96356.22;;;11.33;78.98
21900;BME280;11114;50.658;12.704;2023-05-24T00:05:00;96354.38;;;11.25;78.52
21900;BME280;11114;50.658;12.704;2023-05-24T00:07:46;96362.56;;;11.22;78.16
21900;BME280;11114;50.658;12.704;2023-05-24T00:10:33;96358.91;;;11.15;77.94
21900;BME280;11114;50.658;12.704;2023-05-24T00:13:19;96362.13;;;11.01;78.33
21900;BME280;11114;50.658;12.704;2023-05-24T00:16:06;96360.44;;;10.92;77.89
21900;BME280;11114;50.658;12.704;2023-05-24T00:18:53;96357.94;;;10.83;77.56
21900;BME280;11114;50.658;12.704;2023-05-24T00:21:39;96359.03;;;10.80;78.06
21900;BME280;11114;50.658;12.704;2023-05-24T00:24:26;96357.72;;;10.76;77.86
21900;BME280;11114;50.658;12.704;2023-05-24T00:27:13;96357.72;;;10.76;77.87
21900;BME280;11114;50.658;12.704;2023-05-24T00:30:00;96355.47;;;10.81;78.16
21900;BME280;11114;50.658;12.704;2023-05-24T00:32:46;96365.09;;;10.81;78.07
21900;BME280;11114;50.658;12.704;2023-05-24T00:35:32;96357.09;;;10.82;78.35
21900;BME280;11114;50.658;12.704;2023-05-24T00:38:19;96362.50;;;10.81;77.63
21900;BME280;11114;50.658;12.704;2023-05-24T00:41:06;96361.63;;;10.72;77.77
21900;BME280;11114;50.658;12.704;2023-05-24T00:43:53;96361.66;;;10.80;78.14
21900;BME280;11114;50.658;12.704;2023-05-24T00:46:40;96364.66;;;10.85;77.73
21900;BME280;11114;50.658;12.704;2023-05-24T00:49:27;96363.81;;;10.85;77.39
21900;BME280;11114;50.658;12.704;2023-05-24T00:52:14;96356.81;;;10.85;77.68
21900;BME280;11114;50.658;12.704;2023-05-24T00:55:02;96365.91;;;10.81;77.57
21900;BME280;11114;50.658;12.704;2023-05-24T00:57:50;96377.03;;;10.83;77.56
21900;BME280;11114;50.658;12.704;2023-05-24T01:00:38;96367.22;;;10.77;77.05
21900;BME280;11114;50.658;12.704;2023-05-24T01:03:27;96372.50;;;10.68;77.69
21900;BME280;11114;50.658;12.704;2023-05-24T01:06:16;96370.53;;;10.62;78.22
21900;BME280;11114;50.658;12.704;2023-05-24T01:12:07;96366.84;;;10.47;77.84
21900;BME280;11114;50.658;12.704;2023-05-24T01:15:15;96364.81;;;10.41;77.85
21900;BME280;11114;50.658;12.704;2023-05-24T01:18:14;96364.69;;;10.25;77.87
21900;BME280;11114;50.658;12.704;2023-05-24T01:21:23;96365.59;;;10.34;78.85
21900;BME280;11114;50.658;12.704;2023-05-24T01:27:25;96364.34;;;10.46;78.33
21900;BME280;11114;50.658;12.704;2023-05-24T01:30:12;96363.09;;;10.50;77.81
21900;BME280;11114;50.658;12.704;2023-05-24T01:32:59;96368.41;;;10.40;77.39
21900;BME280;11114;50.658;12.704;2023-05-24T01:35:46;96365.66;;;10.42;78.37
21900;BME280;11114;50.658;12.704;2023-05-24T01:38:33;96371.56;;;10.44;77.58
21900;BME280;11114;50.658;12.704;2023-05-24T01:41:33;96369.91;;;10.43;77.99
21900;BME280;11114;50.658;12.704;2023-05-24T01:44:34;96373.31;;;10.43;78.03
21900;BME280;11114;50.658;12.704;2023-05-24T01:47:58;96376.44;;;10.47;77.83
21900;BME280;11114;50.658;12.704;2023-05-24T01:50:37;96373.47;;;10.42;77.36
21900;BME280;11114;50.658;12.704;2023-05-24T01:53:33;96375.19;;;10.33;76.80
21900;BME280;11114;50.658;12.704;2023-05-24T01:56:20;96372.63;;;10.16;77.11
21900;BME280;11114;50.658;12.704;2023-05-24T01:59:06;96377.22;;;10.22;77.64
21900;BME280;11114;50.658;12.704;2023-05-24T02:01:54;96367.03;;;10.28;77.54
21900;BME280;11114;50.658;12.704;2023-05-24T02:04:41;96372.59;;;10.33;77.35
21900;BME280;11114;50.658;12.704;2023-05-24T02:07:27;96377.28;;;10.30;77.40
21900;BME280;11114;50.658;12.704;2023-05-24T02:10:14;96362.31;;;10.32;77.15
21900;BME280;11114;50.658;12.704;2023-05-24T02:13:01;96372.06;;;10.30;77.17
21900;BME280;11114;50.658;12.704;2023-05-24T02:15:47;96379.91;;;10.30;77.33
21900;BME280;11114;50.658;12.704;2023-05-24T02:18:34;96374.31;;;10.25;76.87
21900;BME280;11114;50.658;12.704;2023-05-24T02:21:23;96371.59;;;10.09;76.96
21900;BME280;11114;50.658;12.704;2023-05-24T02:24:10;96373.88;;;9.94;77.19
21900;BME280;11114;50.658;12.704;2023-05-24T02:26:58;96374.75;;;9.85;76.90
21900;BME280;11114;50.658;12.704;2023-05-24T02:29:45;96370.09;;;9.79;77.58
21900;BME280;11114;50.658;12.704;2023-05-24T02:32:33;96371.31;;;9.68;77.50
21900;BME280;11114;50.658;12.704;2023-05-24T02:35:22;96368.72;;;9.68;77.88
21900;BME280;11114;50.658;12.704;2023-05-24T02:38:08;96364.69;;;9.73;78.19
21900;BME280;11114;50.658;12.704;2023-05-24T02:40:55;96356.19;;;9.71;78.07
21900;BME280;11114;50.658;12.704;2023-05-24T02:43:45;96353.38;;;9.82;77.89
21900;BME280;11114;50.658;12.704;2023-05-24T02:46:32;96358.94;;;9.87;78.06
21900;BME280;11114;50.658;12.704;2023-05-24T02:49:18;96343.94;;;9.98;77.79
21900;BME280;11114;50.658;12.704;2023-05-24T02:52:05;96344.06;;;9.97;77.08
21900;BME280;11114;50.658;12.704;2023-05-24T02:54:51;96344.34;;;9.94;76.91
21900;BME280;11114;50.658;12.704;2023-05-24T02:57:39;96340.34;;;9.82;76.03
21900;BME280;11114;50.658;12.704;2023-05-24T03:00:26;96350.13;;;9.71;76.25
21900;BME280;11114;50.658;12.704;2023-05-24T03:03:13;96340.84;;;9.68;76.65
21900;BME280;11114;50.658;12.704;2023-05-24T03:06:00;96345.75;;;9.71;76.82
21900;BME280;11114;50.658;12.704;2023-05-24T03:08:46;96349.06;;;9.73;76.74
21900;BME280;11114;50.658;12.704;2023-05-24T03:11:34;96345.69;;;9.63;76.89
21900;BME280;11114;50.658;12.704;2023-05-24T03:14:20;96353.50;;;9.63;77.05
21900;BME280;11114;50.658;12.704;2023-05-24T03:17:09;96355.16;;;9.64;77.04
21900;BME280;11114;50.658;12.704;2023-05-24T03:19:55;96351.03;;;9.62;76.85
21900;BME280;11114;50.658;12.704;2023-05-24T03:22:42;96352.66;;;9.63;77.10
21900;BME280;11114;50.658;12.704;2023-05-24T03:25:28;96356.69;;;9.57;76.81
21900;BME280;11114;50.658;12.704;2023-05-24T03:28:15;96361.53;;;9.52;76.74
21900;BME280;11114;50.658;12.704;2023-05-24T03:31:02;96357.69;;;9.56;76.92
21900;BME280;11114;50.658;12.704;2023-05-24T03:33:48;96345.16;;;9.60;76.68
21900;BME280;11114;50.658;12.704;2023-05-24T03:36:35;96351.34;;;9.59;76.86
21900;BME280;11114;50.658;12.704;2023-05-24T03:39:22;96347.63;;;9.61;76.96
21900;BME280;11114;50.658;12.704;2023-05-24T03:42:32;96344.19;;;9.61;76.39
21900;BME280;11114;50.658;12.704;2023-05-24T03:45:18;96346.94;;;9.59;76.53
21900;BME280;11114;50.658;12.704;2023-05-24T03:48:23;96348.22;;;9.55;75.99
21900;BME280;11114;50.658;12.704;2023-05-24T03:51:11;96347.25;;;9.56;75.93
21900;BME280;11114;50.658;12.704;2023-05-24T03:53:57;96343.38;;;9.60;76.26
21900;BME280;11114;50.658;12.704;2023-05-24T03:56:44;96344.72;;;9.64;76.08
21900;BME280;11114;50.658;12.704;2023-05-24T03:59:31;96349.19;;;9.54;75.65
21900;BME280;11114;50.658;12.704;2023-05-24T04:02:17;96350.94;;;9.36;75.62
21900;BME280;11114;50.658;12.704;2023-05-24T04:05:05;96357.81;;;9.28;76.47
21900;BME280;11114;50.658;12.704;2023-05-24T04:07:56;96358.34;;;9.31;76.75
21900;BME280;11114;50.658;12.704;2023-05-24T04:10:42;96363.66;;;9.39;76.98
21900;BME280;11114;50.658;12.704;2023-05-24T04:13:30;96366.94;;;9.41;75.84
21900;BME280;11114;50.658;12.704;2023-05-24T04:16:17;96354.50;;;9.35;76.25
21900;BME280;11114;50.658;12.704;2023-05-24T04:19:04;96360.75;;;9.42;76.38
21900;BME280;11114;50.658;12.704;2023-05-24T04:21:50;96364.03;;;9.44;76.19
21900;BME280;11114;50.658;12.704;2023-05-24T04:24:37;96371.88;;;9.44;76.42
21900;BME280;11114;50.658;12.704;2023-05-24T04:27:24;96374.72;;;9.51;76.41
21900;BME280;11114;50.658;12.704;2023-05-24T04:30:11;96374.72;;;9.51;76.31
21900;BME280;11114;50.658;12.704;2023-05-24T04:32:59;96376.03;;;9.55;75.99
21900;BME280;11114;50.658;12.704;2023-05-24T04:35:47;96375.00;;;9.48;76.25
21900;BME280;11114;50.658;12.704;2023-05-24T04:38:33;96383.06;;;9.54;76.63
21900;BME280;11114;50.658;12.704;2023-05-24T04:41:21;96395.78;;;9.57;76.45
21900;BME280;11114;50.658;12.704;2023-05-24T04:44:08;96391.44;;;9.48;76.17
21900;BME280;11114;50.658;12.704;2023-05-24T04:46:54;96390.91;;;9.45;76.31
21900;BME280;11114;50.658;12.704;2023-05-24T04:49:41;96404.34;;;9.23;76.14
21900;BME280;11114;50.658;12.704;2023-05-24T04:52:28;96406.44;;;9.10;77.07
21900;BME280;11114;50.658;12.704;2023-05-24T04:55:15;96406.97;;;9.13;76.56
21900;BME280;11114;50.658;12.704;2023-05-24T04:58:01;96413.38;;;9.19;76.77
21900;BME280;11114;50.658;12.704;2023-05-24T05:00:48;96416.94;;;9.27;77.26
21900;BME280;11114;50.658;12.704;2023-05-24T05:03:36;96418.16;;;9.23;76.30
21900;BME280;11114;50.658;12.704;2023-05-24T05:06:22;96421.97;;;9.29;77.35
21900;BME280;11114;50.658;12.704;2023-05-24T05:09:10;96431.63;;;9.46;76.91
21900;BME280;11114;50.658;12.704;2023-05-24T05:11:58;96435.72;;;9.48;76.54
21900;BME280;11114;50.658;12.704;2023-05-24T05:14:45;96423.53;;;9.49;76.57
21900;BME280;11114;50.658;12.704;2023-05-24T05:17:32;96431.38;;;9.39;76.86
21900;BME280;11114;50.658;12.704;2023-05-24T05:20:19;96434.25;;;9.46;77.06
21900;BME280;11114;50.658;12.704;2023-05-24T05:23:05;96432.03;;;9.51;76.63
21900;BME280;11114;50.658;12.704;2023-05-24T05:25:52;96428.31;;;9.53;76.50
21900;BME280;11114;50.658;12.704;2023-05-24T05:28:39;96431.97;;;9.60;77.16
21900;BME280;11114;50.658;12.704;2023-05-24T05:31:25;96434.31;;;9.63;76.65
21900;BME280;11114;50.658;12.704;2023-05-24T05:34:11;96435.00;;;9.65;76.29
21900;BME280;11114;50.658;12.704;2023-05-24T05:36:57;96434.69;;;9.68;75.93
21900;BME280;11114;50.658;12.704;2023-05-24T05:39:43;96428.13;;;9.64;75.96
21900;BME280;11114;50.658;12.704;2023-05-24T05:42:29;96427.78;;;9.77;76.44
21900;BME280;11114;50.658;12.704;2023-05-24T05:45:15;96434.84;;;9.84;75.98
21900;BME280;11114;50.658;12.704;2023-05-24T05:48:02;96440.06;;;9.84;75.48
21900;BME280;11114;50.658;12.704;2023-05-24T05:50:49;96440.75;;;9.86;75.56
21900;BME280;11114;50.658;12.704;2023-05-24T05:53:37;96442.03;;;9.82;75.47
21900;BME280;11114;50.658;12.704;2023-05-24T05:56:23;96441.34;;;9.80;75.03
21900;BME280;11114;50.658;12.704;2023-05-24T05:59:13;96438.84;;;9.78;74.96
21900;BME280;11114;50.658;12.704;2023-05-24T06:02:02;96430.59;;;9.83;75.10
21900;BME280;11114;50.658;12.704;2023-05-24T06:04:49;96439.19;;;9.93;75.29
21900;BME280;11114;50.658;12.704;2023-05-24T06:07:35;96446.72;;;9.96;74.56
21900;BME280;11114;50.658;12.704;2023-05-24T06:10:23;96440.81;;;9.94;74.69
21900;BME280;11114;50.658;12.704;2023-05-24T06:13:10;96440.97;;;9.92;74.53
21900;BME280;11114;50.658;12.704;2023-05-24T06:15:56;96446.03;;;9.94;74.23
21900;BME280;11114;50.658;12.704;2023-05-24T06:18:46;96446.31;;;10.00;74.17
21900;BME280;11114;50.658;12.704;2023-05-24T06:21:50;96444.50;;;10.01;73.88
21900;BME280;11114;50.658;12.704;2023-05-24T06:24:37;96453.16;;;10.01;73.29
21900;BME280;11114;50.658;12.704;2023-05-24T06:27:24;96448.53;;;9.95;73.41
21900;BME280;11114;50.658;12.704;2023-05-24T06:30:11;96453.31;;;10.17;74.32
21900;BME280;11114;50.658;12.704;2023-05-24T06:32:58;96452.66;;;10.33;73.32
21900;BME280;11114;50.658;12.704;2023-05-24T06:35:46;96447.00;;;10.37;72.14
21900;BME280;11114;50.658;12.704;2023-05-24T06:38:33;96448.78;;;10.37;72.20
21900;BME280;11114;50.658;12.704;2023-05-24T06:41:21;96450.56;;;10.54;71.64
21900;BME280;11114;50.658;12.704;2023-05-24T06:44:07;96451.63;;;10.61;70.61
21900;BME280;11114;50.658;12.704;2023-05-24T06:46:56;96442.81;;;10.62;70.17
21900;BME280;11114;50.658;12.704;2023-05-24T06:49:45;96447.88;;;10.63;70.33
21900;BME280;11114;50.658;12.704;2023-05-24T06:52:33;96454.69;;;10.56;69.90
21900;BME280;11114;50.658;12.704;2023-05-24T06:55:20;96454.63;;;10.48;70.08
21900;BME280;11114;50.658;12.704;2023-05-24T06:58:06;96469.81;;;10.53;69.69
21900;BME280;11114;50.658;12.704;2023-05-24T07:00:53;96467.06;;;10.54;69.39
21900;BME280;11114;50.658;12.704;2023-05-24T07:03:39;96463.75;;;10.52;69.72
21900;BME280;11114;50.658;12.704;2023-05-24T07:06:26;96470.00;;;10.59;69.99
21900;BME280;11114;50.658;12.704;2023-05-24T07:09:12;96475.56;;;10.56;68.96
21900;BME280;11114;50.658;12.704;2023-05-24T07:11:59;96471.38;;;10.46;68.79
21900;BME280;11114;50.658;12.704;2023-05-24T07:14:46;96474.50;;;10.49;69.63
21900;BME280;11114;50.658;12.704;2023-05-24T07:17:33;96471.97;;;10.57;69.14
21900;BME280;11114;50.658;12.704;2023-05-24T07:20:19;96471.22;;;10.64;69.44
21900;BME280;11114;50.658;12.704;2023-05-24T07:23:06;96477.72;;;10.61;68.74
21900;BME280;11114;50.658;12.704;2023-05-24T07:25:53;96479.66;;;10.59;69.03
21900;BME280;11114;50.658;12.704;2023-05-24T07:28:38;96483.53;;;10.55;68.96
21900;BME280;11114;50.658;12.704;2023-05-24T07:31:25;96482.25;;;10.59;69.09
21900;BME280;11114;50.658;12.704;2023-05-24T07:34:12;96480.97;;;10.63;68.71
21900;BME280;11114;50.658;12.704;2023-05-24T07:36:58;96481.59;;;10.57;68.48
21900;BME280;11114;50.658;12.704;2023-05-24T07:39:45;96488.53;;;10.65;68.93
21900;BME280;11114;50.658;12.704;2023-05-24T07:42:32;96482.31;;;10.66;69.48
21900;BME280;11114;50.658;12.704;2023-05-24T07:45:18;96484.50;;;10.71;69.39
21900;BME280;11114;50.658;12.704;2023-05-24T07:48:05;96482.44;;;10.82;69.27
21900;BME280;11114;50.658;12.704;2023-05-24T07:50:52;96482.84;;;10.87;69.24
21900;BME280;11114;50.658;12.704;2023-05-24T07:53:40;96481.38;;;10.93;69.12
21900;BME280;11114;50.658;12.704;2023-05-24T07:56:26;96480.56;;;10.92;68.93
21900;BME280;11114;50.658;12.704;2023-05-24T07:59:12;96477.16;;;10.92;68.48
21900;BME280;11114;50.658;12.704;2023-05-24T08:01:58;96483.47;;;10.89;68.68
21900;BME280;11114;50.658;12.704;2023-05-24T08:04:50;96485.28;;;10.89;68.27
21900;BME280;11114;50.658;12.704;2023-05-24T08:07:36;96487.06;;;10.88;68.28
21900;BME280;11114;50.658;12.704;2023-05-24T08:10:23;96480.28;;;10.95;68.27
21900;BME280;11114;50.658;12.704;2023-05-24T08:13:10;96477.34;;;10.98;67.37
21900;BME280;11114;50.658;12.704;2023-05-24T08:15:56;96477.66;;;10.95;66.97
21900;BME280;11114;50.658;12.704;2023-05-24T08:18:43;96474.22;;;10.95;67.55
21900;BME280;11114;50.658;12.704;2023-05-24T08:21:30;96475.84;;;11.13;67.31
21900;BME280;11114;50.658;12.704;2023-05-24T08:24:16;96473.91;;;11.23;67.33
21900;BME280;11114;50.658;12.704;2023-05-24T08:27:03;96482.06;;;11.20;66.94
21900;BME280;11114;50.658;12.704;2023-05-24T08:29:49;96486.13;;;11.40;67.68
21900;BME280;11114;50.658;12.704;2023-05-24T08:32:35;96484.94;;;11.60;66.73
21900;BME280;11114;50.658;12.704;2023-05-24T08:35:24;96492.81;;;11.68;65.99
21900;BME280;11114;50.658;12.704;2023-05-24T08:38:11;96500.06;;;11.74;65.05
21900;BME280;11114;50.658;12.704;2023-05-24T08:40:58;96494.16;;;11.72;64.49
21900;BME280;11114;50.658;12.704;2023-05-24T08:43:45;96488.63;;;11.75;65.18
21900;BME280;11114;50.658;12.704;2023-05-24T08:46:35;96488.97;;;11.80;65.42
21900;BME280;11114;50.658;12.704;2023-05-24T08:49:22;96491.75;;;11.78;63.63
21900;BME280;11114;50.658;12.704;2023-05-24T08:52:11;96496.97;;;11.78;64.45
21900;BME280;11114;50.658;12.704;2023-05-24T08:54:58;96500.28;;;11.88;64.52
21900;BME280;11114;50.658;12.704;2023-05-24T08:57:46;96501.09;;;11.89;64.44
21900;BME280;11114;50.658;12.704;2023-05-24T09:00:33;96499.47;;;11.96;64.74
21900;BME280;11114;50.658;12.704;2023-05-24T09:03:20;96498.41;;;12.06;64.34
21900;BME280;11114;50.658;12.704;2023-05-24T09:06:08;96491.88;;;12.18;65.36
21900;BME280;11114;50.658;12.704;2023-05-24T09:08:58;96492.72;;;12.27;64.57
21900;BME280;11114;50.658;12.704;2023-05-24T09:11:46;96514.00;;;12.31;63.57
21900;BME280;11114;50.658;12.704;2023-05-24T09:14:34;96504.19;;;12.41;63.81
21900;BME280;11114;50.658;12.704;2023-05-24T09:17:21;96504.09;;;12.67;64.41
21900;BME280;11114;50.658;12.704;2023-05-24T09:20:08;96499.38;;;13.02;63.63
21900;BME280;11114;50.658;12.704;2023-05-24T09:22:57;96500.31;;;13.25;63.57
21900;BME280;11114;50.658;12.704;2023-05-24T09:25:45;96499.31;;;13.34;62.29
21900;BME280;11114;50.658;12.704;2023-05-24T09:28:32;96500.66;;;13.22;61.81
21900;BME280;11114;50.658;12.704;2023-05-24T09:31:35;96508.56;;;13.06;60.97
21900;BME280;11114;50.658;12.704;2023-05-24T09:34:22;96500.34;;;13.09;62.01
21900;BME280;11114;50.658;12.704;2023-05-24T09:37:13;96505.56;;;13.09;60.27
21900;BME280;11114;50.658;12.704;2023-05-24T09:40:02;96505.72;;;12.84;58.34
21900;BME280;11114;50.658;12.704;2023-05-24T09:43:05;96508.78;;;12.39;59.49
21900;BME280;11114;50.658;12.704;2023-05-24T09:45:56;96505.69;;;12.52;60.54
21900;BME280;11114;50.658;12.704;2023-05-24T09:48:59;96507.06;;;12.96;60.95
21900;BME280;11114;50.658;12.704;2023-05-24T09:51:51;96499.31;;;13.34;60.63
21900;BME280;11114;50.658;12.704;2023-05-24T09:54:38;96493.72;;;13.53;60.94
21900;BME280;11114;50.658;12.704;2023-05-24T09:57:27;96504.84;;;13.63;60.53
21900;BME280;11114;50.658;12.704;2023-05-24T10:00:21;96506.44;;;13.80;59.94
21900;BME280;11114;50.658;12.704;2023-05-24T10:03:09;96509.19;;;13.86;59.41
21900;BME280;11114;50.658;12.704;2023-05-24T10:05:57;96497.72;;;13.87;58.99
21900;BME280;11114;50.658;12.704;2023-05-24T10:08:46;96499.63;;;14.01;58.52
21900;BME280;11114;50.658;12.704;2023-05-24T10:11:34;96510.88;;;14.25;59.57
21900;BME280;11114;50.658;12.704;2023-05-24T10:14:22;96515.34;;;14.17;56.57
21900;BME280;11114;50.658;12.704;2023-05-24T10:17:10;96514.06;;;13.59;55.68
21900;BME280;11114;50.658;12.704;2023-05-24T10:19:57;96520.59;;;13.55;59.10
21900;BME280;11114;50.658;12.704;2023-05-24T10:22:46;96510.44;;;13.60;58.16
21900;BME280;11114;50.658;12.704;2023-05-24T10:25:33;96504.38;;;13.97;59.63
21900;BME280;11114;50.658;12.704;2023-05-24T10:28:21;96494.88;;;14.65;59.89
21900;BME280;11114;50.658;12.704;2023-05-24T10:31:16;96490.22;;;15.12;57.33
21900;BME280;11114;50.658;12.704;2023-05-24T10:34:05;96499.28;;;15.32;57.95
21900;BME280;11114;50.658;12.704;2023-05-24T10:36:54;96506.06;;;15.63;57.75
21900;BME280;11114;50.658;12.704;2023-05-24T10:39:41;96500.41;;;16.09;57.74
21900;BME280;11114;50.658;12.704;2023-05-24T10:42:30;96504.16;;;16.50;55.53
21900;BME280;11114;50.658;12.704;2023-05-24T10:51:27;96494.75;;;16.41;52.57
21900;BME280;11114;50.658;12.704;2023-05-24T10:54:17;96496.19;;;16.58;53.46
21900;BME280;11114;50.658;12.704;2023-05-24T10:57:05;96508.41;;;16.65;53.79
21900;BME280;11114;50.658;12.704;2023-05-24T10:59:52;96502.69;;;16.62;52.80
21900;BME280;11114;50.658;12.704;2023-05-24T11:02:43;96507.44;;;16.52;52.25
21900;BME280;11114;50.658;12.704;2023-05-24T11:05:34;96504.09;;;16.58;52.74
21900;BME280;11114;50.658;12.704;2023-05-24T11:08:28;96502.41;;;16.71;52.67
21900;BME280;11114;50.658;12.704;2023-05-24T11:11:14;96495.19;;;16.80;52.00
21900;BME280;11114;50.658;12.704;2023-05-24T11:14:13;96493.59;;;16.64;50.94
21900;BME280;11114;50.658;12.704;2023-05-24T11:17:05;96503.53;;;16.62;51.98
21900;BME280;11114;50.658;12.704;2023-05-24T11:19:53;96492.03;;;16.70;51.02
21900;BME280;11114;50.658;12.704;2023-05-24T11:22:40;96497.06;;;16.86;51.44
21900;BME280;11114;50.658;12.704;2023-05-24T11:25:26;96498.72;;;17.29;52.69
21900;BME280;11114;50.658;12.704;2023-05-24T11:28:13;96500.78;;;17.60;50.86
21900;BME280;11114;50.658;12.704;2023-05-24T11:31:07;96499.94;;;17.53;50.14
21900;BME280;11114;50.658;12.704;2023-05-24T11:33:54;96493.31;;;17.36;50.07
21900;BME280;11114;50.658;12.704;2023-05-24T11:36:41;96503.06;;;17.22;50.45
21900;BME280;11114;50.658;12.704;2023-05-24T11:39:31;96496.63;;;17.24;50.47
21900;BME280;11114;50.658;12.704;2023-05-24T11:42:20;96505.44;;;17.31;50.25
21900;BME280;11114;50.658;12.704;2023-05-24T11:45:07;96499.00;;;17.40;50.37
21900;BME280;11114;50.658;12.704;2023-05-24T11:47:55;96497.88;;;17.28;49.01
21900;BME280;11114;50.658;12.704;2023-05-24T11:50:43;96500.34;;;17.09;49.14
21900;BME280;11114;50.658;12.704;2023-05-24T11:53:32;96494.75;;;16.76;48.60
21900;BME280;11114;50.658;12.704;2023-05-24T11:56:19;96508.28;;;16.52;49.11
21900;BME280;11114;50.658;12.704;2023-05-24T11:59:13;96507.44;;;16.52;49.30
21900;BME280;11114;50.658;12.704;2023-05-24T12:02:05;96510.41;;;16.63;49.65
21900;BME280;11114;50.658;12.704;2023-05-24T12:05:06;96509.88;;;16.89;51.01
21900;BME280;11114;50.658;12.704;2023-05-24T12:08:03;96509.69;;;17.11;49.60
21900;BME280;11114;50.658;12.704;2023-05-24T12:10:51;96504.72;;;17.23;50.50
21900;BME280;11114;50.658;12.704;2023-05-24T12:13:38;96511.50;;;17.32;50.33
21900;BME280;11114;50.658;12.704;2023-05-24T12:16:26;96509.38;;;17.41;50.30
21900;BME280;11114;50.658;12.704;2023-05-24T12:19:16;96510.75;;;17.37;48.85
21900;BME280;11114;50.658;12.704;2023-05-24T12:22:24;96507.97;;;17.25;48.92
21900;BME280;11114;50.658;12.704;2023-05-24T12:25:16;96509.91;;;17.16;48.81
21900;BME280;11114;50.658;12.704;2023-05-24T12:28:06;96508.94;;;16.96;49.27
21900;BME280;11114;50.658;12.704;2023-05-24T12:30:52;96504.97;;;16.86;49.77
21900;BME280;11114;50.658;12.704;2023-05-24T12:33:39;96506.16;;;16.83;50.00
21900;BME280;11114;50.658;12.704;2023-05-24T12:36:27;96507.44;;;16.87;49.80
21900;BME280;11114;50.658;12.704;2023-05-24T12:39:19;96504.00;;;16.72;47.42
21900;BME280;11114;50.658;12.704;2023-05-24T12:42:06;96509.94;;;16.39;48.66
21900;BME280;11114;50.658;12.704;2023-05-24T12:44:52;96499.03;;;16.28;50.21
21900;BME280;11114;50.658;12.704;2023-05-24T12:47:38;96499.50;;;16.17;50.00
21900;BME280;11114;50.658;12.704;2023-05-24T12:50:26;96503.31;;;16.14;48.81
21900;BME280;11114;50.658;12.704;2023-05-24T12:53:12;96499.06;;;15.99;49.88
21900;BME280;11114;50.658;12.704;2023-05-24T12:56:00;96509.28;;;16.23;51.85
21900;BME280;11114;50.658;12.704;2023-05-24T12:58:46;96496.03;;;16.31;50.67
21900;BME280;11114;50.658;12.704;2023-05-24T13:01:32;96503.59;;;16.34;49.50
21900;BME280;11114;50.658;12.704;2023-05-24T13:04:20;96499.50;;;16.31;50.65
21900;BME280;11114;50.658;12.704;2023-05-24T13:07:08;96502.22;;;16.23;49.26
21900;BME280;11114;50.658;12.704;2023-05-24T13:09:55;96499.13;;;16.20;50.17
21900;BME280;11114;50.658;12.704;2023-05-24T13:12:43;96498.41;;;16.11;50.39
21900;BME280;11114;50.658;12.704;2023-05-24T13:15:29;96497.31;;;16.20;50.57
21900;BME280;11114;50.658;12.704;2023-05-24T13:18:15;96495.38;;;16.29;50.33
21900;BME280;11114;50.658;12.704;2023-05-24T13:21:03;96496.88;;;16.31;50.41
21900;BME280;11114;50.658;12.704;2023-05-24T13:23:51;96494.88;;;16.19;49.57
21900;BME280;11114;50.658;12.704;2023-05-24T13:26:36;96498.06;;;16.14;50.72
21900;BME280;11114;50.658;12.704;2023-05-24T13:29:24;96494.03;;;16.18;49.84
21900;BME280;11114;50.658;12.704;2023-05-24T13:32:13;96487.53;;;16.14;49.92
21900;BME280;11114;50.658;12.704;2023-05-24T13:35:00;96485.88;;;16.13;50.30
21900;BME280;11114;50.658;12.704;2023-05-24T13:37:47;96489.44;;;16.06;49.42
21900;BME280;11114;50.658;12.704;2023-05-24T13:40:34;96489.69;;;16.11;50.00
21900;BME280;11114;50.658;12.704;2023-05-24T13:43:26;96488.97;;;16.02;49.69
21900;BME280;11114;50.658;12.704;2023-05-24T13:46:12;96499.50;;;16.02;49.90
21900;BME280;11114;50.658;12.704;2023-05-24T13:48:59;96488.63;;;16.05;50.81
21900;BME280;11114;50.658;12.704;2023-05-24T13:51:45;96487.97;;;16.18;50.23
21900;BME280;11114;50.658;12.704;2023-05-24T13:54:32;96485.13;;;16.19;48.79
21900;BME280;11114;50.658;12.704;2023-05-24T13:57:19;96480.88;;;16.18;49.46
21900;BME280;11114;50.658;12.704;2023-05-24T14:00:09;96479.50;;;16.22;50.28
21900;BME280;11114;50.658;12.704;2023-05-24T14:02:56;96473.69;;;16.27;51.50
21900;BME280;11114;50.658;12.704;2023-05-24T14:05:43;96469.91;;;16.29;51.25
21900;BME280;11114;50.658;12.704;2023-05-24T14:08:30;96474.50;;;16.27;51.72
21900;BME280;11114;50.658;12.704;2023-05-24T14:11:16;96480.56;;;16.42;52.45
21900;BME280;11114;50.658;12.704;2023-05-24T14:14:02;96492.06;;;16.55;51.79
21900;BME280;11114;50.658;12.704;2023-05-24T14:16:51;96486.00;;;16.55;50.91
21900;BME280;11114;50.658;12.704;2023-05-24T14:19:40;96500.00;;;16.41;50.18
21900;BME280;11114;50.658;12.704;2023-05-24T14:22:26;96501.84;;;16.26;50.26
21900;BME280;11114;50.658;12.704;2023-05-24T14:25:13;96490.41;;;16.19;50.97
21900;BME280;11114;50.658;12.704;2023-05-24T14:28:00;96494.69;;;16.20;50.28
21900;BME280;11114;50.658;12.704;2023-05-24T14:30:48;96502.13;;;16.17;50.85
21900;BME280;11114;50.658;12.704;2023-05-24T14:33:37;96493.59;;;16.15;50.75
21900;BME280;11114;50.658;12.704;2023-05-24T14:36:23;96491.75;;;16.15;50.43
21900;BME280;11114;50.658;12.704;2023-05-24T14:39:09;96497.97;;;16.08;50.18
21900;BME280;11114;50.658;12.704;2023-05-24T14:41:56;96495.34;;;15.93;50.39
21900;BME280;11114;50.658;12.704;2023-05-24T14:44:42;96498.41;;;15.82;50.51
21900;BME280;11114;50.658;12.704;2023-05-24T14:47:29;96493.59;;;15.71;50.28
21900;BME280;11114;50.658;12.704;2023-05-24T14:50:15;96492.16;;;15.69;50.16
21900;BME280;11114;50.658;12.704;2023-05-24T14:53:03;96491.91;;;15.64;49.66
21900;BME280;11114;50.658;12.704;2023-05-24T14:55:55;96493.31;;;15.52;50.49